Decoded Metar for EPSC (SZCZECIN in POLAND) (IATA:SZZ) | Meteo·Mobile Aviation Weather
aviador You're here:

EPSC Decoded Metar

SZCZECIN in POLAND
Report Time2018-08-19 04:00:00
UTC Time2018-08-19 04:29:33
Flight Rules vfr VFR
Wind110° at 02 kt
W.Decomp.*RWY 13: 1.8 kt HW 0.8 kt LCW
W.Rank110° ranks 13
Current wind is below 110° avg. (6.0)
Visibility9999 m
Phenomena:N/A
Clouds:N/A
Expected CloudBase > 400 ft AGL from Temp-Dew spread
CeilingNone
Temp12°C (ISA -3)
Dew Point11°C (94% RH)
AAT11.6°C
QNH1020 hPa
Density Alt-407 ft
Elevation10 ft
Report Wrong Elevation
Raw Report
EPSC 190400Z 11002KT CAVOK 12/11 Q1020=

Extra information for EPSC:More info

Metar Taf Metar & Taf Last 4 Metars F.Rules Stats Wind Profile Meteogram Temp Stats Airport Information Weather charts Add Link Nearby VenuesMetar ALERT Operation Metar Decoded Social comments